Time;durP1;ratioP1;P1;durP2;ratioP2;P2;SDS_P1;SDS_P2;PMS_P1;PMS_P2;Temp;Humidity;BMP_temperature;BMP_pressure;BME280_temperature;BME280_humidity;BME280_pressure;Samples;Min_cycle;Max_cycle;Signal;HPM_P1;HPM_P2
2023/03/23 00:01:24;;;;;;;42.35;38.03;;;12.30;99.90;;;;;;4883517;29;20487;-72
2023/03/23 00:03:51;;;;;;;46.38;40.97;;;12.30;99.90;;;;;;4883664;29;20046;-72
2023/03/23 00:06:18;;;;;;;48.45;43.03;;;12.30;99.90;;;;;;4883428;29;20040;-72
2023/03/23 00:08:46;;;;;;;54.90;47.30;;;12.20;99.90;;;;;;4883556;29;20332;-71
2023/03/23 00:11:22;;;;;;;69.30;48.80;;;12.30;99.90;;;;;;4883354;29;20052;-72
2023/03/23 00:13:53;;;;;;;59.00;43.67;;;12.30;99.90;;;;;;4883019;29;20134;-71
2023/03/23 00:16:28;;;;;;;46.00;39.33;;;12.30;99.90;;;;;;4897543;29;20355;-71
2023/03/23 00:18:55;;;;;;;48.55;41.45;;;12.30;99.90;;;;;;4883252;29;20097;-71
2023/03/23 00:21:32;;;;;;;60.00;43.97;;;12.20;99.90;;;;;;4883218;29;20068;-71
2023/03/23 00:23:59;;;;;;;49.63;42.80;;;12.20;99.90;;;;;;4882982;29;20052;-71
2023/03/23 00:26:28;;;;;;;44.58;40.00;;;12.20;99.90;;;;;;4883188;29;20052;-71
2023/03/23 00:28:54;;;;;;;44.83;39.80;;;12.10;99.90;;;;;;4883091;29;20041;-72
2023/03/23 00:31:19;;;;;;;45.60;40.65;;;12.10;99.90;;;;;;4883074;29;20453;-71
2023/03/23 00:33:45;;;;;;;51.67;43.08;;;12.10;99.90;;;;;;4883065;29;20056;-71
2023/03/23 00:36:12;;;;;;;57.83;43.67;;;12.10;99.90;;;;;;4882642;29;20051;-72
2023/03/23 00:38:39;;;;;;;49.25;39.65;;;12.10;99.90;;;;;;4883019;29;20181;-72
2023/03/23 00:41:06;;;;;;;56.80;41.97;;;12.10;99.90;;;;;;4882988;29;20052;-71
2023/03/23 00:43:35;;;;;;;56.22;41.63;;;12.10;99.90;;;;;;4882507;29;20051;-71
2023/03/23 00:46:08;;;;;;;45.28;40.63;;;12.10;99.90;;;;;;4882502;29;20466;-71
2023/03/23 00:48:35;;;;;;;52.03;40.65;;;12.10;99.90;;;;;;4882685;29;20045;-71
2023/03/23 00:51:05;;;;;;;57.20;44.97;;;12.10;99.90;;;;;;4882581;29;20466;-72
2023/03/23 00:53:32;;;;;;;52.85;41.45;;;12.10;99.90;;;;;;4882921;29;20116;-72
2023/03/23 00:55:58;;;;;;;46.92;39.22;;;12.00;99.90;;;;;;4883063;29;20064;-72
2023/03/23 00:58:24;;;;;;;37.30;33.42;;;12.00;99.90;;;;;;4883360;29;20036;-71
2023/03/23 01:00:49;;;;;;;37.33;33.38;;;11.90;99.90;;;;;;4882820;29;20040;-71
2023/03/23 01:03:18;;;;;;;37.85;34.17;;;11.90;99.90;;;;;;4866389;29;20092;-71
2023/03/23 01:05:46;;;;;;;33.65;30.23;;;11.90;99.90;;;;;;4882458;29;20510;-72
2023/03/23 01:08:13;;;;;;;30.85;27.63;;;11.80;99.90;;;;;;4886283;29;20049;-72
2023/03/23 01:10:40;;;;;;;29.83;27.08;;;11.70;99.90;;;;;;4886548;29;20132;-72
2023/03/23 01:13:07;;;;;;;29.75;27.05;;;11.70;99.90;;;;;;4886199;29;20045;-72
2023/03/23 01:15:33;;;;;;;27.27;25.05;;;11.70;99.90;;;;;;4885984;29;20081;-72
2023/03/23 01:17:59;;;;;;;24.13;21.70;;;11.70;99.90;;;;;;4886485;29;20116;-72
2023/03/23 01:20:26;;;;;;;26.17;23.67;;;11.60;99.90;;;;;;4886879;29;20377;-72
2023/03/23 01:22:52;;;;;;;26.55;23.98;;;11.60;99.90;;;;;;4886365;29;20124;-72
2023/03/23 01:25:19;;;;;;;27.50;23.77;;;11.60;99.90;;;;;;4869824;29;20056;-72
2023/03/23 01:27:44;;;;;;;26.92;24.15;;;11.80;99.90;;;;;;4886279;29;20052;-72
2023/03/23 01:30:12;;;;;;;25.70;23.38;;;11.80;99.90;;;;;;4869564;29;20416;-72
2023/03/23 01:32:38;;;;;;;25.83;23.00;;;12.00;99.90;;;;;;4886197;29;20056;-72
2023/03/23 01:35:04;;;;;;;26.20;23.52;;;12.00;99.90;;;;;;4869605;29;20328;-72
2023/03/23 01:37:30;;;;;;;30.27;27.23;;;12.00;99.90;;;;;;4886113;29;20056;-72
2023/03/23 01:39:57;;;;;;;29.48;26.55;;;12.10;99.90;;;;;;4886050;29;20041;-72
2023/03/23 01:42:33;;;;;;;34.58;30.92;;;12.10;99.90;;;;;;4885970;29;20068;-72
2023/03/23 01:45:17;;;;;;;;;;;12.10;99.90;;;;;;4885832;29;20049;-72
2023/03/23 01:47:43;;;;;;;31.20;27.83;;;12.20;99.90;;;;;;4885886;29;19919;-72
2023/03/23 01:50:09;;;;;;;30.48;27.00;;;12.20;99.90;;;;;;4885527;29;20056;-72
2023/03/23 01:52:36;;;;;;;30.08;25.30;;;12.20;99.90;;;;;;4885816;29;20116;-72
2023/03/23 01:55:03;;;;;;;29.38;25.15;;;12.20;99.90;;;;;;4885859;29;20048;-72
2023/03/23 01:57:29;;;;;;;29.25;26.05;;;12.20;99.90;;;;;;4885715;29;20047;-72
2023/03/23 01:59:59;;;;;;;28.65;25.77;;;12.40;99.90;;;;;;4885363;29;20462;-72
2023/03/23 02:02:26;;;;;;;28.10;25.20;;;12.30;99.90;;;;;;4885370;29;20033;-72
2023/03/23 02:04:57;;;;;;;33.45;25.45;;;12.20;99.90;;;;;;4885355;29;20049;-72
2023/03/23 02:07:24;;;;;;;27.10;22.25;;;12.20;99.90;;;;;;4885595;29;20048;-72
2023/03/23 02:09:51;;;;;;;24.00;21.50;;;12.20;99.90;;;;;;4885489;29;20084;-72
2023/03/23 02:12:17;;;;;;;24.35;21.67;;;12.20;99.90;;;;;;4885499;29;20049;-72
2023/03/23 02:14:42;;;;;;;22.80;20.55;;;12.20;99.90;;;;;;4884928;29;20048;-72
2023/03/23 02:17:19;;;;;;;22.63;20.35;;;12.10;99.90;;;;;;4885428;29;20045;-72
2023/03/23 02:20:06;;;;;;;23.65;19.45;;;12.20;99.90;;;;;;4884778;29;20041;-72
2023/03/23 02:22:59;;;;;;;22.75;18.90;;;12.20;99.90;;;;;;4885005;29;20049;-72
2023/03/23 02:26:13;;;;;;;20.42;17.67;;;12.20;99.90;;;;;;4885005;29;20092;-72
2023/03/23 02:29:09;;;;;;;20.50;18.25;;;12.10;99.90;;;;;;4828471;29;20321;-72
2023/03/23 02:31:43;;;;;;;23.15;18.40;;;12.10;99.90;;;;;;4885158;29;20069;-71
2023/03/23 02:34:48;;;;;;;20.02;17.85;;;12.10;99.90;;;;;;4884870;29;20491;-72
2023/03/23 02:37:32;;;;;;;20.70;16.95;;;12.20;99.90;;;;;;4868799;29;20053;-71
2023/03/23 02:40:32;;;;;;;16.63;15.02;;;12.20;99.90;;;;;;4885056;29;20112;-72
2023/03/23 02:42:59;;;;;;;14.88;13.38;;;12.20;99.90;;;;;;4880633;29;20088;-72
2023/03/23 02:45:28;;;;;;;16.98;15.15;;;12.10;99.90;;;;;;4884189;29;20052;-72
2023/03/23 02:47:55;;;;;;;17.95;14.05;;;12.10;99.90;;;;;;4884827;29;20049;-72
2023/03/23 02:50:24;;;;;;;17.95;14.27;;;12.00;99.90;;;;;;4884535;29;20052;-72
2023/03/23 02:52:52;;;;;;;14.52;13.05;;;12.10;99.90;;;;;;4884738;29;20043;-72
2023/03/23 02:55:19;;;;;;;16.67;12.73;;;12.20;99.90;;;;;;4884638;29;20053;-72
2023/03/23 02:57:46;;;;;;;17.08;13.10;;;12.20;99.90;;;;;;4884737;29;20136;-72
2023/03/23 03:00:15;;;;;;;14.20;12.23;;;12.20;99.90;;;;;;4884649;29;20446;-72
2023/03/23 03:02:53;;;;;;;18.83;12.98;;;12.20;99.90;;;;;;4884315;29;20045;-72
2023/03/23 03:05:42;;;;;;;11.95;10.75;;;12.10;99.90;;;;;;4884246;29;20052;-72
2023/03/23 03:08:32;;;;;;;14.90;10.77;;;12.10;99.90;;;;;;4884423;29;20073;-72
2023/03/23 03:11:09;;;;;;;11.98;10.00;;;12.00;99.90;;;;;;4884496;29;20044;-72
2023/03/23 03:13:59;;;;;;;12.60;9.77;;;12.10;99.90;;;;;;4883865;29;20045;-72
2023/03/23 03:16:50;;;;;;;11.75;9.85;;;12.10;99.90;;;;;;4884893;29;20124;-71
2023/03/23 03:19:35;;;;;;;10.93;9.90;;;12.20;99.90;;;;;;4884322;29;20033;-72
2023/03/23 03:22:01;;;;;;;16.00;10.77;;;12.10;99.90;;;;;;4884010;29;20041;-72
2023/03/23 03:24:29;;;;;;;15.70;10.60;;;12.20;99.90;;;;;;4867491;29;20048;-72
2023/03/23 03:26:59;;;;;;;16.50;10.48;;;12.20;99.90;;;;;;4883840;29;20041;-72
2023/03/23 03:29:32;;;;;;;13.55;9.68;;;12.20;99.90;;;;;;4883594;29;20101;-72
2023/03/23 03:32:01;;;;;;;12.73;9.30;;;12.20;99.90;;;;;;4883607;29;20048;-72
2023/03/23 03:34:27;;;;;;;15.65;9.15;;;12.20;99.90;;;;;;4883979;29;20094;-72
2023/03/23 03:36:58;;;;;;;12.43;8.73;;;12.20;99.90;;;;;;4883950;29;20041;-72
2023/03/23 03:39:25;;;;;;;14.13;9.05;;;12.10;99.90;;;;;;4884058;29;20116;-72
2023/03/23 03:41:52;;;;;;;11.05;8.70;;;12.10;99.90;;;;;;4883882;29;20065;-72
2023/03/23 03:44:18;;;;;;;13.02;9.27;;;12.00;99.90;;;;;;4883299;29;20168;-70
2023/03/23 03:46:43;;;;;;;11.60;9.20;;;12.00;99.90;;;;;;4883763;29;20052;-72
2023/03/23 03:49:12;;;;;;;9.63;8.70;;;12.10;99.90;;;;;;4883818;29;20335;-72
2023/03/23 03:51:43;;;;;;;14.80;9.90;;;12.10;99.90;;;;;;5153586;27;1281143;-72
2023/03/23 03:54:10;;;;;;;13.88;10.57;;;11.90;99.90;;;;;;5176794;27;20138;-72
2023/03/23 03:56:40;;;;;;;19.05;14.20;;;11.90;99.90;;;;;;5176762;27;20396;-72
2023/03/23 03:59:07;;;;;;;17.23;15.48;;;12.00;99.90;;;;;;5176700;27;20030;-72
2023/03/23 04:01:33;;;;;;;17.40;15.73;;;11.90;99.90;;;;;;5176354;27;20042;-72
2023/03/23 04:03:59;;;;;;;18.05;15.73;;;11.90;99.90;;;;;;5176327;27;20117;-72
2023/03/23 04:06:27;;;;;;;22.67;20.35;;;11.90;99.90;;;;;;5176554;27;20382;-72
2023/03/23 04:08:58;;;;;;;28.25;25.40;;;11.80;99.90;;;;;;5176183;27;20416;-72
2023/03/23 04:11:26;;;;;;;28.98;26.33;;;11.80;99.90;;;;;;5176416;27;20030;-72
2023/03/23 04:13:51;;;;;;;30.13;26.85;;;11.70;99.90;;;;;;5176058;27;20078;-72
2023/03/23 04:16:17;;;;;;;30.17;27.00;;;11.70;99.90;;;;;;5176733;27;20077;-72
2023/03/23 04:18:43;;;;;;;32.53;29.33;;;11.80;99.90;;;;;;5176325;27;20105;-72
2023/03/23 04:21:09;;;;;;;35.58;31.88;;;11.90;99.90;;;;;;5176219;27;20039;-72
2023/03/23 04:23:35;;;;;;;26.55;24.05;;;11.90;99.90;;;;;;5176263;27;20327;-71
2023/03/23 04:26:03;;;;;;;24.75;22.55;;;11.60;99.90;;;;;;5175865;27;20423;-72
2023/03/23 04:28:33;;;;;;;23.38;21.77;;;11.10;99.90;;;;;;5175850;27;20121;-72
2023/03/23 04:31:00;;;;;;;21.08;19.48;;;10.90;99.90;;;;;;5175997;27;20316;-72
2023/03/23 04:33:28;;;;;;;19.92;18.58;;;10.70;99.90;;;;;;5176026;27;20042;-72
2023/03/23 04:35:56;;;;;;;22.30;20.75;;;10.50;99.90;;;;;;5176049;27;20105;-72
2023/03/23 04:38:24;;;;;;;24.63;22.85;;;10.50;99.90;;;;;;5175986;27;20038;-72
2023/03/23 04:40:51;;;;;;;24.75;22.83;;;10.50;99.90;;;;;;5175731;27;20121;-72
2023/03/23 04:43:22;;;;;;;21.58;20.17;;;10.70;99.90;;;;;;5168887;27;20140;-72
2023/03/23 04:45:57;;;;;;;19.50;17.73;;;10.70;99.90;;;;;;5173791;27;20038;-72
2023/03/23 04:48:33;;;;;;;16.80;15.18;;;10.80;99.90;;;;;;5175505;27;20037;-71
2023/03/23 04:51:02;;;;;;;15.15;11.85;;;10.80;99.90;;;;;;5175460;27;20054;-71
2023/03/23 04:53:28;;;;;;;16.27;13.00;;;10.80;99.90;;;;;;5175332;27;20031;-72
2023/03/23 04:55:54;;;;;;;14.02;11.90;;;10.80;99.90;;;;;;5175314;27;20038;-71
2023/03/23 04:58:20;;;;;;;17.52;13.82;;;10.80;99.90;;;;;;5175569;27;20149;-72
2023/03/23 05:00:49;;;;;;;15.10;12.27;;;10.70;99.90;;;;;;5175497;27;20042;-72
2023/03/23 05:03:16;;;;;;;17.13;15.05;;;10.70;99.90;;;;;;5160705;27;20042;-72
2023/03/23 05:05:46;;;;;;;19.30;16.55;;;10.80;99.90;;;;;;5143163;27;20034;-72
2023/03/23 05:08:13;;;;;;;21.10;18.80;;;10.90;99.90;;;;;;5161189;27;20080;-72
2023/03/23 05:10:39;;;;;;;21.05;18.98;;;10.90;99.90;;;;;;5161336;27;20042;-72
2023/03/23 05:13:04;;;;;;;22.10;19.73;;;11.00;99.90;;;;;;5161022;27;20159;-72
2023/03/23 05:15:30;;;;;;;22.80;20.80;;;11.00;99.90;;;;;;5142579;27;20042;-72
2023/03/23 05:17:56;;;;;;;25.02;22.67;;;11.00;99.90;;;;;;5161244;27;20067;-72
2023/03/23 05:20:22;;;;;;;27.95;25.25;;;11.10;99.90;;;;;;5160911;27;20041;-72
2023/03/23 05:22:49;;;;;;;25.20;22.83;;;11.10;99.90;;;;;;5160886;27;20339;-72
2023/03/23 05:25:15;;;;;;;24.10;21.73;;;11.10;99.90;;;;;;5161931;27;20463;-72
2023/03/23 05:27:48;;;;;;;25.20;20.17;;;11.00;99.90;;;;;;5160578;27;20423;-72
2023/03/23 05:30:16;;;;;;;21.42;18.02;;;11.00;99.90;;;;;;5160572;27;20075;-71
2023/03/23 05:32:44;;;;;;;26.17;20.58;;;11.00;99.90;;;;;;5160541;27;20070;-72
2023/03/23 05:35:11;;;;;;;24.13;18.80;;;11.00;99.90;;;;;;5160721;27;20050;-72
2023/03/23 05:37:38;;;;;;;22.88;15.45;;;11.00;99.90;;;;;;5160792;27;20045;-72
2023/03/23 05:40:06;;;;;;;25.27;17.88;;;11.00;99.90;;;;;;5160430;27;20423;-72
2023/03/23 05:42:36;;;;;;;29.38;14.90;;;11.00;99.90;;;;;;5160093;27;20038;-72
2023/03/23 05:45:05;;;;;;;22.45;14.20;;;11.10;99.90;;;;;;5160621;27;20039;-72
2023/03/23 05:47:31;;;;;;;27.23;13.73;;;11.00;99.90;;;;;;5160644;27;20038;-72
2023/03/23 05:49:58;;;;;;;23.42;13.25;;;11.10;99.90;;;;;;5160327;27;20125;-72
2023/03/23 05:52:24;;;;;;;22.95;13.48;;;11.00;99.90;;;;;;5160640;27;20054;-72
2023/03/23 05:54:50;;;;;;;36.60;12.60;;;11.00;99.90;;;;;;5160543;27;20446;-72
2023/03/23 05:57:16;;;;;;;28.88;11.65;;;11.00;99.90;;;;;;5160250;27;20026;-72
2023/03/23 05:59:43;;;;;;;24.02;12.30;;;11.00;99.90;;;;;;5160436;27;20046;-72
2023/03/23 06:02:09;;;;;;;21.77;13.75;;;11.00;99.90;;;;;;5160382;27;20166;-73
2023/03/23 06:04:37;;;;;;;23.02;11.68;;;11.10;99.90;;;;;;5160093;27;20042;-73
2023/03/23 06:07:04;;;;;;;31.48;11.48;;;11.00;99.90;;;;;;5160009;27;20470;-72
2023/03/23 06:09:30;;;;;;;37.88;10.13;;;11.00;99.90;;;;;;5159832;27;20035;-72
2023/03/23 06:11:56;;;;;;;26.10;9.77;;;10.90;99.90;;;;;;5159935;27;20043;-72
2023/03/23 06:14:22;;;;;;;31.27;10.20;;;11.00;99.90;;;;;;5158410;27;20443;-72
2023/03/23 06:16:48;;;;;;;23.80;9.27;;;11.00;99.90;;;;;;5159864;27;20039;-72
2023/03/23 06:19:15;;;;;;;23.98;9.88;;;11.00;99.90;;;;;;5160065;27;20038;-72
2023/03/23 06:21:42;;;;;;;28.33;10.30;;;11.10;99.90;;;;;;5159995;27;20304;-72
2023/03/23 06:24:08;;;;;;;28.08;9.65;;;11.10;99.90;;;;;;5159932;27;20035;-72
2023/03/23 06:26:37;;;;;;;26.92;8.50;;;11.10;99.90;;;;;;5159937;27;20026;-72
2023/03/23 06:29:10;;;;;;;25.25;8.98;;;11.10;99.90;;;;;;5159893;27;20122;-72
2023/03/23 06:31:41;;;;;;;27.92;9.57;;;11.10;99.90;;;;;;5159844;27;20053;-72
2023/03/23 06:34:08;;;;;;;29.55;8.73;;;11.10;99.90;;;;;;5159539;27;20091;-72
2023/03/23 06:36:34;;;;;;;23.15;8.05;;;11.10;99.90;;;;;;5159716;27;20082;-72
2023/03/23 06:39:00;;;;;;;27.55;8.02;;;11.20;99.90;;;;;;5159697;27;20296;-73
2023/03/23 06:41:26;;;;;;;21.90;7.60;;;11.20;99.90;;;;;;5159636;27;20061;-73
2023/03/23 06:43:53;;;;;;;31.25;7.05;;;11.10;99.90;;;;;;5159134;27;20466;-73
2023/03/23 06:46:19;;;;;;;26.20;7.28;;;11.20;99.90;;;;;;5159521;27;20038;-72
2023/03/23 06:48:45;;;;;;;28.73;7.15;;;11.10;99.90;;;;;;5159214;27;20060;-72
2023/03/23 06:51:11;;;;;;;27.48;7.90;;;11.20;99.90;;;;;;5158990;27;20050;-72
2023/03/23 06:53:37;;;;;;;27.92;9.27;;;11.20;99.90;;;;;;5159055;27;20095;-73
2023/03/23 06:56:02;;;;;;;26.13;10.38;;;11.20;99.90;;;;;;5159273;27;20038;-73
2023/03/23 06:58:28;;;;;;;20.02;5.22;;;11.20;99.90;;;;;;5159272;27;20139;-73
2023/03/23 07:00:56;;;;;;;17.27;5.78;;;11.00;99.90;;;;;;5159238;27;20331;-73
2023/03/23 07:03:23;;;;;;;16.50;3.65;;;10.90;99.90;;;;;;5159223;27;20313;-73
2023/03/23 07:05:49;;;;;;;11.35;3.03;;;10.70;99.90;;;;;;5140837;27;20313;-72
2023/03/23 07:08:15;;;;;;;8.82;2.50;;;10.50;99.90;;;;;;5158798;27;20046;-72
2023/03/23 07:10:41;;;;;;;9.70;2.30;;;10.40;99.90;;;;;;5158694;27;20043;-72
2023/03/23 07:13:07;;;;;;;11.75;3.80;;;10.40;99.90;;;;;;5140389;27;20126;-72
2023/03/23 07:15:33;;;;;;;16.73;3.72;;;10.50;99.90;;;;;;5158553;27;20034;-72
2023/03/23 07:17:58;;;;;;;21.27;5.00;;;10.50;99.90;;;;;;5140666;27;20049;-72
2023/03/23 07:20:25;;;;;;;19.20;4.90;;;10.70;99.90;;;;;;5158861;27;20319;-72
2023/03/23 07:22:51;;;;;;;19.92;6.22;;;10.80;99.90;;;;;;5158433;27;20331;-72
2023/03/23 07:25:18;;;;;;;22.20;6.88;;;10.90;99.90;;;;;;5158561;27;20074;-72
2023/03/23 07:27:45;;;;;;;24.70;6.45;;;11.00;99.90;;;;;;5158424;27;20082;-72
2023/03/23 07:30:12;;;;;;;25.33;8.00;;;11.00;99.90;;;;;;5158726;27;20035;-72
2023/03/23 07:32:37;;;;;;;32.97;8.35;;;11.10;99.90;;;;;;5158392;27;20034;-72
2023/03/23 07:35:03;;;;;;;21.10;6.75;;;11.30;99.90;;;;;;5158407;27;20030;-72
2023/03/23 07:37:29;;;;;;;27.48;8.98;;;11.30;99.90;;;;;;5158655;27;20062;-72
2023/03/23 07:39:55;;;;;;;33.33;7.45;;;11.40;99.90;;;;;;5158645;27;20392;-72
2023/03/23 07:42:21;;;;;;;26.90;7.63;;;11.40;99.90;;;;;;5158563;27;20038;-73
2023/03/23 07:44:46;;;;;;;39.97;8.45;;;11.40;99.90;;;;;;5157867;27;20094;-72
2023/03/23 07:47:13;;;;;;;27.58;8.15;;;11.50;99.90;;;;;;5158287;27;20076;-72
2023/03/23 07:49:39;;;;;;;29.85;6.20;;;11.60;99.90;;;;;;5157916;27;20043;-72
2023/03/23 07:52:04;;;;;;;36.20;7.68;;;11.60;99.90;;;;;;5158563;27;20180;-72
2023/03/23 07:54:30;;;;;;;26.30;6.55;;;11.60;99.90;;;;;;5158519;27;20070;-72
2023/03/23 07:56:56;;;;;;;31.25;6.28;;;11.70;99.90;;;;;;5158501;27;20436;-72
2023/03/23 07:59:22;;;;;;;33.58;5.53;;;11.80;99.90;;;;;;5158140;27;20042;-72
2023/03/23 08:01:48;;;;;;;24.80;6.10;;;11.80;99.90;;;;;;5158117;27;20070;-72
2023/03/23 08:04:15;;;;;;;29.48;5.45;;;11.80;99.90;;;;;;5158863;27;20026;-72
2023/03/23 08:06:41;;;;;;;23.95;5.45;;;11.60;99.90;;;;;;5158473;27;20095;-72
2023/03/23 08:09:08;;;;;;;27.35;6.35;;;11.60;99.90;;;;;;5158091;27;20123;-72
2023/03/23 08:11:37;;;;;;;27.35;6.65;;;11.70;99.90;;;;;;5158195;27;20047;-72
2023/03/23 08:14:03;;;;;;;27.05;5.30;;;11.70;99.90;;;;;;5157927;27;20384;-72
2023/03/23 08:16:28;;;;;;;29.40;5.60;;;11.70;99.90;;;;;;5158302;27;20067;-72
2023/03/23 08:18:54;;;;;;;29.00;4.97;;;11.70;99.90;;;;;;5140095;27;20034;-72
2023/03/23 08:21:22;;;;;;;31.08;4.63;;;11.70;99.90;;;;;;5158235;27;20039;-73
2023/03/23 08:23:47;;;;;;;33.97;6.53;;;11.60;99.90;;;;;;5157927;27;20117;-72
2023/03/23 08:26:15;;;;;;;33.78;6.40;;;11.60;99.90;;;;;;5158071;27;20172;-72
2023/03/23 08:28:42;;;;;;;29.02;5.18;;;11.70;99.90;;;;;;5157941;27;20038;-72
2023/03/23 08:31:10;;;;;;;28.58;5.75;;;11.70;99.90;;;;;;5157809;27;20086;-72
2023/03/23 08:33:40;;;;;;;21.52;5.20;;;11.80;99.90;;;;;;5158192;27;20038;-72
2023/03/23 08:36:07;;;;;;;27.77;5.95;;;11.90;99.90;;;;;;5158152;27;20038;-72
2023/03/23 08:38:33;;;;;;;38.17;5.32;;;12.00;99.90;;;;;;5161611;27;20120;-72
2023/03/23 08:41:04;;;;;;;26.45;5.68;;;11.90;99.90;;;;;;5161675;27;20073;-72
2023/03/23 08:43:30;;;;;;;28.65;5.03;;;11.70;99.90;;;;;;5161693;27;20046;-72
2023/03/23 08:45:56;;;;;;;35.45;5.15;;;11.70;99.90;;;;;;5161510;27;20048;-72
2023/03/23 08:48:22;;;;;;;31.65;5.20;;;11.70;99.90;;;;;;5161853;27;20043;-72
2023/03/23 08:50:49;;;;;;;28.80;5.25;;;11.80;99.90;;;;;;5161390;27;20054;-72
2023/03/23 08:53:15;;;;;;;29.52;4.70;;;11.80;99.90;;;;;;5161771;27;20030;-72
2023/03/23 08:55:42;;;;;;;38.05;5.68;;;11.80;99.90;;;;;;5161368;27;20026;-72
2023/03/23 08:58:09;;;;;;;33.28;6.10;;;11.90;99.90;;;;;;5161629;27;20121;-72
2023/03/23 09:00:35;;;;;;;28.42;4.53;;;12.10;99.90;;;;;;5161333;27;20046;-72
2023/03/23 09:03:01;;;;;;;28.90;4.78;;;12.10;99.90;;;;;;5161595;27;20043;-72
2023/03/23 09:05:28;;;;;;;31.40;5.30;;;12.10;99.90;;;;;;5161596;27;20038;-68
2023/03/23 09:07:58;;;;;;;39.63;5.90;;;11.90;99.90;;;;;;5161226;27;20034;-68
2023/03/23 09:10:25;;;;;;;33.58;5.80;;;12.10;99.90;;;;;;5142768;27;20051;-67
2023/03/23 09:12:52;;;;;;;35.53;5.43;;;12.40;99.90;;;;;;5161382;27;20034;-68
2023/03/23 09:15:19;;;;;;;33.80;6.38;;;12.60;99.90;;;;;;5160949;27;20041;-68
2023/03/23 09:17:48;;;;;;;36.88;6.28;;;12.80;99.90;;;;;;5161004;27;20034;-68
2023/03/23 09:20:17;;;;;;;27.13;5.15;;;12.60;99.90;;;;;;5161287;27;20041;-68
2023/03/23 09:22:45;;;;;;;33.90;5.97;;;12.60;99.90;;;;;;5160882;27;20034;-68
2023/03/23 09:25:18;;;;;;;35.65;5.20;;;12.60;99.90;;;;;;5161139;27;20118;-69
2023/03/23 09:27:46;;;;;;;35.22;5.78;;;12.60;99.90;;;;;;5161157;27;20035;-68
2023/03/23 09:30:14;;;;;;;34.38;4.78;;;12.60;99.90;;;;;;5160947;27;20044;-68
2023/03/23 09:32:41;;;;;;;33.35;4.82;;;12.60;99.90;;;;;;5161045;27;20091;-67
2023/03/23 09:35:09;;;;;;;31.30;5.43;;;12.70;99.90;;;;;;5160934;27;20041;-67
2023/03/23 09:37:35;;;;;;;36.25;4.80;;;12.90;99.90;;;;;;5160646;27;20043;-67
2023/03/23 09:40:05;;;;;;;31.23;4.43;;;12.80;99.90;;;;;;5160824;27;20039;-67
2023/03/23 09:42:47;;;;;;;27.58;4.53;;;12.90;99.90;;;;;;5160565;27;20439;-67
2023/03/23 09:45:51;;;;;;;28.83;5.05;;;12.80;99.90;;;;;;5142217;27;20077;-67
2023/03/23 09:48:37;;;;;;;27.08;3.65;;;12.60;99.90;;;;;;5160633;27;20115;-67
2023/03/23 09:51:46;;;;;;;30.88;5.13;;;12.50;99.90;;;;;;5160275;27;20088;-67
2023/03/23 09:54:24;;;;;;;27.58;4.28;;;12.50;99.90;;;;;;5126254;27;20035;-67
2023/03/23 09:56:51;;;;;;;28.63;3.85;;;12.60;99.90;;;;;;5160580;27;20118;-67
2023/03/23 09:59:41;;;;;;;30.48;3.72;;;12.40;99.90;;;;;;5160151;27;20381;-68
2023/03/23 10:02:15;;;;;;;26.80;3.90;;;12.40;99.90;;;;;;5160736;27;20041;-66
2023/03/23 10:04:49;;;;;;;27.85;4.22;;;12.40;99.90;;;;;;5157756;27;20373;-66
2023/03/23 10:07:20;;;;;;;23.63;3.70;;;12.60;99.90;;;;;;5145011;27;20428;-68
2023/03/23 10:09:53;;;;;;;32.72;4.22;;;12.70;99.90;;;;;;5150933;27;20039;-68
2023/03/23 10:12:30;;;;;;;23.55;3.55;;;12.90;99.90;;;;;;5104115;27;20091;-67
2023/03/23 10:15:10;;;;;;;24.40;4.00;;;12.90;99.90;;;;;;5155878;27;20031;-67
2023/03/23 10:18:00;;;;;;;23.77;3.63;;;13.00;99.90;;;;;;5160131;27;20035;-68
2023/03/23 10:20:35;;;;;;;30.40;4.38;;;12.90;99.90;;;;;;5160083;27;20053;-68
2023/03/23 10:23:18;;;;;;;26.27;3.45;;;12.80;99.90;;;;;;5159748;27;20427;-67
2023/03/23 10:26:07;;;;;;;25.55;4.28;;;12.90;99.90;;;;;;5160012;27;20073;-68
2023/03/23 10:28:44;;;;;;;21.02;3.25;;;12.70;99.90;;;;;;5159522;27;20043;-68
2023/03/23 10:31:17;;;;;;;28.38;3.53;;;12.50;99.90;;;;;;5159547;27;20085;-68
2023/03/23 10:33:49;;;;;;;24.70;3.90;;;12.40;99.90;;;;;;5159568;27;20458;-67
2023/03/23 10:36:41;;;;;;;25.33;4.30;;;12.40;99.90;;;;;;5159777;27;20062;-67
2023/03/23 10:39:12;;;;;;;32.78;4.57;;;12.60;99.90;;;;;;5145715;27;20047;-68
2023/03/23 10:41:38;;;;;;;30.08;4.07;;;12.80;99.90;;;;;;5159686;27;20041;-68
2023/03/23 10:44:17;;;;;;;22.92;3.42;;;12.90;99.90;;;;;;5158869;27;20423;-68
2023/03/23 10:46:57;;;;;;;22.95;3.58;;;12.90;99.90;;;;;;5141247;27;20042;-67
2023/03/23 10:49:38;;;;;;;31.25;3.65;;;13.30;99.90;;;;;;5159227;27;20365;-68
2023/03/23 10:52:26;;;;;;;21.67;2.97;;;13.70;99.90;;;;;;5159508;27;20336;-68
2023/03/23 10:54:58;;;;;;;20.10;2.97;;;14.00;99.90;;;;;;5159409;27;20035;-68
2023/03/23 10:57:30;;;;;;;20.48;3.78;;;14.40;99.90;;;;;;5159369;27;20034;-67
2023/03/23 11:00:06;;;;;;;19.30;3.95;;;14.60;99.90;;;;;;5158519;27;20045;-68
2023/03/23 11:02:40;;;;;;;27.20;3.85;;;14.80;99.90;;;;;;5159059;27;20067;-67
2023/03/23 11:05:22;;;;;;;21.63;3.17;;;14.90;99.90;;;;;;5158920;27;20027;-68
2023/03/23 11:07:54;;;;;;;18.85;3.10;;;14.80;99.90;;;;;;5140830;27;20085;-67
2023/03/23 11:10:34;;;;;;;16.30;2.63;;;14.50;99.90;;;;;;5159080;27;20034;-68
2023/03/23 11:13:00;;;;;;;21.08;2.78;;;14.30;99.90;;;;;;5140815;27;20042;-68
2023/03/23 11:15:34;;;;;;;17.10;3.45;;;14.50;99.90;;;;;;5140352;27;20328;-74
2023/03/23 11:18:07;;;;;;;22.52;3.78;;;14.30;99.90;;;;;;5159066;27;20035;-68
2023/03/23 11:20:48;;;;;;;17.65;2.97;;;14.50;99.90;;;;;;5159094;27;20043;-71
2023/03/23 11:23:27;;;;;;;21.52;3.75;;;14.80;99.90;;;;;;5158636;27;20034;-68
2023/03/23 11:26:00;;;;;;;17.00;2.90;;;15.20;99.90;;;;;;5158847;27;20038;-68
2023/03/23 11:28:31;;;;;;;12.60;2.60;;;15.80;99.90;;;;;;5158828;27;20042;-68
2023/03/23 11:30:59;;;;;;;15.93;2.45;;;16.40;99.90;;;;;;5158804;27;20107;-72
2023/03/23 11:33:28;;;;;;;17.42;2.80;;;16.80;99.90;;;;;;5158737;27;20118;-69
2023/03/23 11:35:55;;;;;;;11.10;2.03;;;16.30;99.90;;;;;;5158435;27;20536;-69
2023/03/23 11:38:23;;;;;;;23.00;2.17;;;16.20;99.90;;;;;;5158653;27;20135;-69
2023/03/23 11:40:52;;;;;;;14.85;2.42;;;16.20;99.90;;;;;;5158673;27;20043;-69
2023/03/23 11:43:22;;;;;;;13.18;1.83;;;16.10;99.90;;;;;;5158520;27;20320;-71
2023/03/23 11:46:04;;;;;;;19.20;2.70;;;15.90;99.90;;;;;;5158629;27;20093;-69
2023/03/23 11:48:53;;;;;;;17.88;2.70;;;15.60;99.90;;;;;;5158628;27;20039;-69
2023/03/23 11:51:31;;;;;;;14.05;2.25;;;15.20;99.90;;;;;;5158055;27;20062;-69
2023/03/23 11:54:17;;;;;;;18.80;2.58;;;14.70;99.90;;;;;;5140432;27;20038;-68
2023/03/23 11:56:45;;;;;;;14.52;2.67;;;14.70;99.90;;;;;;5158580;27;20034;-68
2023/03/23 11:59:14;;;;;;;18.13;2.75;;;14.40;99.90;;;;;;5158516;27;20073;-68
2023/03/23 12:01:49;;;;;;;18.67;2.50;;;14.60;99.90;;;;;;5158131;27;20035;-68
2023/03/23 12:04:52;;;;;;;16.33;2.42;;;14.60;99.90;;;;;;5139941;27;20047;-74
2023/03/23 12:07:28;;;;;;;12.77;1.83;;;14.80;99.90;;;;;;5140085;27;20055;-73
2023/03/23 12:10:19;;;;;;;15.63;2.42;;;14.50;99.90;;;;;;5140088;27;20333;-69
2023/03/23 12:12:51;;;;;;;16.60;2.40;;;14.20;99.90;;;;;;5160714;27;20450;-69
2023/03/23 12:15:45;;;;;;;13.88;2.28;;;14.60;99.90;;;;;;5144413;27;20439;-69
2023/03/23 12:18:28;;;;;;;13.27;2.22;;;14.60;99.90;;;;;;5162547;27;20031;-69
2023/03/23 12:21:13;;;;;;;12.82;2.80;;;14.70;99.90;;;;;;5162478;27;20332;-69
2023/03/23 12:23:50;;;;;;;20.75;2.20;;;15.10;99.90;;;;;;5162191;27;20054;-70
2023/03/23 12:26:28;;;;;;;17.25;2.60;;;15.30;99.90;;;;;;5143810;27;20042;-69
2023/03/23 12:29:00;;;;;;;15.65;2.15;;;15.50;99.90;;;;;;5162361;27;20046;-70
2023/03/23 12:31:57;;;;;;;16.15;2.00;;;15.60;99.90;;;;;;5162160;27;20043;-68
2023/03/23 12:34:54;;;;;;;13.52;2.17;;;15.60;99.90;;;;;;5156743;27;20043;-69
2023/03/23 12:37:57;;;;;;;13.57;2.30;;;16.10;99.90;;;;;;5162179;27;20031;-69
2023/03/23 12:41:01;;;;;;;20.27;2.80;;;16.60;99.90;;;;;;5161556;27;20047;-69
2023/03/23 12:43:41;;;;;;;15.73;3.08;;;16.80;99.90;;;;;;5161393;27;20039;-68
2023/03/23 12:46:18;;;;;;;16.05;2.70;;;16.40;99.90;;;;;;5161318;27;20043;-76
2023/03/23 12:48:50;;;;;;;13.90;2.70;;;16.10;99.90;;;;;;5161937;27;20034;-67
2023/03/23 12:51:32;;;;;;;13.65;2.20;;;15.90;99.90;;;;;;5161427;27;20110;-67
2023/03/23 12:53:58;;;;;;;12.52;2.03;;;16.10;99.90;;;;;;5143646;27;20026;-68